createdAt,value
2022-10-14T00:01:48.578Z,17.15
2022-10-14T00:03:51.390Z,17.14
2022-10-14T00:05:54.337Z,17.13
2022-10-14T00:07:55.840Z,17.13
2022-10-14T00:09:57.443Z,17.12
2022-10-14T00:11:58.899Z,17.11
2022-10-14T00:14:11.426Z,17.12
2022-10-14T00:16:20.198Z,17.11
2022-10-14T00:18:21.781Z,17.09
2022-10-14T00:20:25.013Z,17.09
2022-10-14T00:22:27.003Z,17.10
2022-10-14T00:24:28.718Z,17.08
2022-10-14T00:26:35.841Z,17.08
2022-10-14T00:28:37.808Z,17.08
2022-10-14T00:30:39.541Z,17.08
2022-10-14T00:32:41.045Z,17.07
2022-10-14T00:34:44.121Z,17.07
2022-10-14T00:36:45.854Z,17.07
2022-10-14T00:38:54.488Z,17.07
2022-10-14T00:40:56.395Z,17.06
2022-10-14T00:42:57.904Z,17.08
2022-10-14T00:45:14.527Z,17.08
2022-10-14T00:47:16.571Z,17.08
2022-10-14T00:49:26.351Z,17.08
2022-10-14T00:51:28.456Z,17.10
2022-10-14T00:53:30.127Z,17.09
2022-10-14T00:55:31.682Z,17.08
2022-10-14T00:57:35.782Z,17.08
2022-10-14T00:59:39.238Z,17.08
2022-10-14T01:01:41.051Z,17.09
2022-10-14T01:03:42.720Z,17.07
2022-10-14T01:05:56.368Z,17.07
2022-10-14T01:08:05.629Z,17.07
2022-10-14T01:10:14.172Z,17.08
2022-10-14T01:12:34.131Z,17.07
2022-10-14T01:15:11.646Z,17.07
2022-10-14T01:17:36.270Z,17.03
2022-10-14T01:20:04.349Z,17.03
2022-10-14T01:22:22.438Z,17.05
2022-10-14T01:24:55.502Z,17.05
2022-10-14T01:27:12.164Z,17.03
2022-10-14T01:29:50.585Z,17.04
2022-10-14T01:32:02.724Z,17.05
2022-10-14T01:34:08.312Z,17.04
2022-10-14T01:36:42.374Z,17.04
2022-10-14T01:38:54.238Z,17.04
2022-10-14T01:41:13.885Z,17.06
2022-10-14T01:43:19.035Z,17.06
2022-10-14T01:45:23.350Z,17.06
2022-10-14T01:47:28.450Z,17.07
2022-10-14T01:49:37.808Z,17.09
2022-10-14T01:51:55.773Z,17.07
2022-10-14T01:54:09.029Z,17.08
2022-10-14T01:56:13.494Z,17.10
2022-10-14T01:58:17.765Z,17.11
2022-10-14T02:00:19.631Z,17.11
2022-10-14T02:02:22.660Z,17.12
2022-10-14T02:04:24.560Z,17.12
2022-10-14T02:06:39.075Z,17.12
2022-10-14T02:09:14.488Z,17.11
2022-10-14T02:11:22.397Z,17.12
2022-10-14T02:13:46.037Z,17.12
2022-10-14T02:15:50.658Z,17.12
2022-10-14T02:17:52.290Z,17.13
2022-10-14T02:20:01.653Z,17.13
2022-10-14T02:22:09.905Z,17.14
2022-10-14T02:24:29.292Z,17.13
2022-10-14T02:26:33.705Z,17.12
2022-10-14T02:28:38.721Z,17.14
2022-10-14T02:30:48.651Z,17.14
2022-10-14T02:32:53.513Z,17.13
2022-10-14T02:34:59.072Z,17.14
2022-10-14T02:37:09.386Z,17.14
2022-10-14T02:39:15.712Z,17.15
2022-10-14T02:41:21.064Z,17.14
2022-10-14T02:43:23.992Z,17.14
2022-10-14T02:45:27.105Z,17.14
2022-10-14T02:47:30.095Z,17.14
2022-10-14T02:49:32.100Z,17.14
2022-10-14T02:51:34.719Z,17.14
2022-10-14T02:53:36.407Z,17.15
2022-10-14T02:55:37.959Z,17.15
2022-10-14T02:57:40.596Z,17.14
2022-10-14T02:59:42.328Z,17.14
2022-10-14T03:01:44.134Z,17.14
2022-10-14T03:03:46.338Z,17.14
2022-10-14T03:05:48.409Z,17.15
2022-10-14T03:07:50.936Z,17.14
2022-10-14T03:09:55.875Z,17.14
2022-10-14T03:11:58.977Z,17.14
2022-10-14T03:14:00.745Z,17.14
2022-10-14T03:16:02.429Z,17.14
2022-10-14T03:18:03.986Z,17.13
2022-10-14T03:20:15.562Z,17.13
2022-10-14T03:22:23.108Z,17.12
2022-10-14T03:24:25.583Z,17.12
2022-10-14T03:26:47.067Z,17.10
2022-10-14T03:28:49.758Z,17.11
2022-10-14T03:30:56.189Z,17.09
2022-10-14T03:33:20.526Z,17.08
2022-10-14T03:35:35.215Z,17.06
2022-10-14T03:37:42.472Z,17.05
2022-10-14T03:39:45.030Z,17.06
2022-10-14T03:41:47.646Z,17.04
2022-10-14T03:43:52.921Z,17.01
2022-10-14T03:45:55.407Z,16.98
2022-10-14T03:47:59.460Z,16.96
2022-10-14T03:50:02.934Z,16.93
2022-10-14T03:52:13.130Z,16.89
2022-10-14T03:54:19.534Z,16.87
2022-10-14T03:56:26.517Z,16.83
2022-10-14T03:58:29.474Z,16.81
2022-10-14T04:00:36.831Z,16.78
2022-10-14T04:02:54.310Z,16.75
2022-10-14T04:05:08.784Z,16.73
2022-10-14T04:07:10.358Z,16.70
2022-10-14T04:09:12.568Z,16.69
2022-10-14T04:11:17.364Z,16.67
2022-10-14T04:13:20.429Z,16.66
2022-10-14T04:15:25.843Z,16.65
2022-10-14T04:17:45.801Z,16.61
2022-10-14T04:19:51.307Z,16.60
2022-10-14T04:21:52.953Z,16.59
2022-10-14T04:23:57.257Z,16.57
2022-10-14T04:26:11.254Z,16.55
2022-10-14T04:28:13.745Z,16.51
2022-10-14T04:30:23.457Z,16.50
2022-10-14T04:32:29.497Z,16.48
2022-10-14T04:34:31.271Z,16.46
2022-10-14T04:36:33.321Z,16.45
2022-10-14T04:38:37.015Z,16.42
2022-10-14T04:40:45.503Z,16.41
2022-10-14T04:42:47.830Z,16.41
2022-10-14T04:44:55.957Z,16.37
2022-10-14T04:47:05.443Z,16.37
2022-10-14T04:49:08.974Z,16.35
2022-10-14T04:51:15.108Z,16.34
2022-10-14T04:53:35.218Z,16.32
2022-10-14T04:56:01.218Z,16.30
2022-10-14T04:58:03.621Z,16.28
2022-10-14T05:00:16.960Z,16.24
2022-10-14T05:02:18.587Z,16.24
2022-10-14T05:04:25.706Z,16.22
2022-10-14T05:06:27.739Z,16.20
2022-10-14T05:08:30.847Z,16.19
2022-10-14T05:10:35.175Z,16.17
2022-10-14T05:12:39.649Z,16.14
2022-10-14T05:14:41.466Z,16.14
2022-10-14T05:16:56.188Z,16.12
2022-10-14T05:19:03.100Z,16.08
2022-10-14T05:21:06.623Z,16.08
2022-10-14T05:23:32.368Z,16.06
2022-10-14T05:25:36.786Z,16.06
2022-10-14T05:27:39.076Z,16.05
2022-10-14T05:29:41.109Z,16.04
2022-10-14T05:31:43.120Z,16.04
2022-10-14T05:34:08.276Z,16.02
2022-10-14T05:36:10.015Z,16.03
2022-10-14T05:38:12.408Z,16.02
2022-10-14T05:40:16.799Z,16.03
2022-10-14T05:42:18.914Z,16.04
2022-10-14T05:44:23.996Z,16.05
2022-10-14T05:46:25.933Z,16.05
2022-10-14T05:48:30.673Z,16.06
2022-10-14T05:50:32.730Z,16.05
2022-10-14T05:52:40.761Z,16.06
2022-10-14T05:54:49.879Z,16.06
2022-10-14T05:56:54.822Z,16.07
2022-10-14T05:58:58.379Z,16.07
2022-10-14T06:01:05.627Z,16.08
2022-10-14T06:03:07.298Z,16.09
2022-10-14T06:05:11.503Z,16.10
2022-10-14T06:07:16.901Z,16.09
2022-10-14T06:09:18.624Z,16.11
2022-10-14T06:11:20.240Z,16.12
2022-10-14T06:13:22.653Z,16.14
2022-10-14T06:15:25.315Z,16.15
2022-10-14T06:17:28.852Z,16.16
2022-10-14T06:19:31.855Z,16.17
2022-10-14T06:21:33.508Z,16.18
2022-10-14T06:23:37.253Z,16.18
2022-10-14T06:25:39.126Z,16.18
2022-10-14T06:27:41.189Z,16.19
2022-10-14T06:29:42.877Z,16.20
2022-10-14T06:31:46.841Z,16.21
2022-10-14T06:33:48.594Z,16.20
2022-10-14T06:35:50.182Z,16.21
2022-10-14T06:37:51.776Z,16.20
2022-10-14T06:39:53.429Z,16.20
2022-10-14T06:41:55.255Z,16.20
2022-10-14T06:43:58.333Z,16.20
2022-10-14T06:45:59.962Z,16.19
2022-10-14T06:48:05.054Z,16.20
2022-10-14T06:50:07.321Z,16.21
2022-10-14T06:52:08.763Z,16.21
2022-10-14T06:54:10.520Z,16.22
2022-10-14T06:56:12.337Z,16.23
2022-10-14T06:58:16.932Z,16.23
2022-10-14T07:00:18.633Z,16.22
2022-10-14T07:02:20.556Z,16.25
2022-10-14T07:04:22.957Z,16.24
2022-10-14T07:06:24.690Z,16.26
2022-10-14T07:08:26.214Z,16.27
2022-10-14T07:10:27.976Z,16.28
2022-10-14T07:12:29.633Z,16.30
2022-10-14T07:14:31.139Z,16.32
2022-10-14T07:16:33.320Z,16.34
2022-10-14T07:18:37.919Z,16.34
2022-10-14T07:20:39.716Z,16.38
2022-10-14T07:22:41.297Z,16.40
2022-10-14T07:24:42.979Z,16.41
2022-10-14T07:26:44.752Z,16.42
2022-10-14T07:28:46.438Z,16.46
2022-10-14T07:31:06.946Z,16.48
2022-10-14T07:33:08.591Z,16.50
2022-10-14T07:35:10.096Z,16.54
2022-10-14T07:37:11.820Z,16.56
2022-10-14T07:39:13.528Z,16.58
2022-10-14T07:41:18.489Z,16.60
2022-10-14T07:43:20.062Z,16.64
2022-10-14T07:45:22.034Z,16.66
2022-10-14T07:47:24.315Z,16.69
2022-10-14T07:49:26.154Z,16.73
2022-10-14T07:51:30.691Z,16.75
2022-10-14T07:53:32.456Z,16.78
2022-10-14T07:55:34.109Z,16.84
2022-10-14T07:57:35.797Z,16.85
2022-10-14T07:59:37.341Z,16.89
2022-10-14T08:01:39.177Z,16.93
2022-10-14T08:03:41.513Z,16.97
2022-10-14T08:05:43.814Z,17.02
2022-10-14T08:07:45.560Z,17.03
2022-10-14T08:09:47.502Z,17.06
2022-10-14T08:11:49.461Z,17.11
2022-10-14T08:13:52.010Z,17.14
2022-10-14T08:15:53.752Z,17.18
2022-10-14T08:17:55.997Z,17.23
2022-10-14T08:20:01.205Z,17.27
2022-10-14T08:22:02.928Z,17.31
2022-10-14T08:24:04.756Z,17.35
2022-10-14T08:26:18.956Z,17.38
2022-10-14T08:28:20.657Z,17.44
2022-10-14T08:30:22.670Z,17.47
2022-10-14T08:32:24.652Z,17.53
2022-10-14T08:34:26.628Z,17.58
2022-10-14T08:36:28.884Z,17.65
2022-10-14T08:38:30.434Z,17.72
2022-10-14T08:40:46.319Z,17.77
2022-10-14T08:43:20.343Z,17.82
2022-10-14T08:45:39.671Z,17.87
2022-10-14T08:47:46.122Z,17.94
2022-10-14T08:49:56.825Z,17.96
2022-10-14T08:52:03.413Z,18.02
2022-10-14T08:54:10.323Z,18.06
2022-10-14T08:56:14.705Z,18.11
2022-10-14T08:58:21.647Z,18.16
2022-10-14T09:00:23.748Z,18.21
2022-10-14T09:02:57.418Z,18.28
2022-10-14T09:05:00.142Z,18.35
2022-10-14T09:07:04.779Z,18.42
2022-10-14T09:09:09.030Z,18.47
2022-10-14T09:11:15.048Z,18.52
2022-10-14T09:13:21.697Z,18.59
2022-10-14T09:15:32.598Z,18.64
2022-10-14T09:17:46.093Z,18.68
2022-10-14T09:20:09.328Z,18.77
2022-10-14T09:22:14.635Z,18.83
2022-10-14T09:24:21.939Z,18.89
2022-10-14T09:26:23.838Z,18.97
2022-10-14T09:28:39.520Z,19.02
2022-10-14T09:30:41.462Z,19.10
2022-10-14T09:32:49.429Z,19.13
2022-10-14T09:34:52.322Z,19.19
2022-10-14T09:36:54.340Z,19.26
2022-10-14T09:39:02.303Z,19.31
2022-10-14T09:41:12.638Z,19.34
2022-10-14T09:43:21.340Z,19.40
2022-10-14T09:45:25.478Z,19.45
2022-10-14T09:47:29.271Z,19.51
2022-10-14T09:49:43.909Z,19.52
2022-10-14T09:51:46.173Z,19.55
2022-10-14T09:54:03.384Z,19.53
2022-10-14T09:56:07.334Z,19.58
2022-10-14T09:58:17.244Z,19.63
2022-10-14T10:00:31.538Z,19.66
2022-10-14T10:02:46.974Z,19.68
2022-10-14T10:04:49.838Z,19.73
2022-10-14T10:06:53.904Z,19.77
2022-10-14T10:08:55.612Z,19.83
2022-10-14T10:11:07.041Z,19.91
2022-10-14T10:13:24.231Z,19.98
2022-10-14T10:15:25.854Z,20.08
2022-10-14T10:17:32.315Z,20.17
2022-10-14T10:19:39.565Z,20.28
2022-10-14T10:21:41.185Z,20.41
2022-10-14T10:23:57.234Z,20.52
2022-10-14T10:26:16.069Z,20.62
2022-10-14T10:28:26.946Z,20.74
2022-10-14T10:31:03.767Z,20.84
2022-10-14T10:33:43.795Z,20.95
2022-10-14T10:36:22.655Z,21.08
2022-10-14T10:38:31.303Z,21.20
2022-10-14T10:40:56.046Z,21.31
2022-10-14T10:43:20.008Z,21.42
2022-10-14T10:45:39.943Z,21.51
2022-10-14T10:47:50.806Z,21.59
2022-10-14T10:50:10.965Z,21.67
2022-10-14T10:52:21.683Z,21.72
2022-10-14T10:54:40.124Z,21.76
2022-10-14T10:56:46.918Z,21.82
2022-10-14T10:59:12.658Z,21.85
2022-10-14T11:01:31.654Z,21.90
2022-10-14T11:04:03.892Z,21.93
2022-10-14T11:06:37.527Z,21.97
2022-10-14T11:09:22.123Z,22.02
2022-10-14T11:11:50.279Z,22.08
2022-10-14T11:13:58.790Z,22.11
2022-10-14T11:16:19.973Z,22.16
2022-10-14T11:18:33.085Z,22.20
2022-10-14T11:21:11.765Z,22.23
2022-10-14T11:23:16.019Z,22.27
2022-10-14T11:25:40.184Z,22.31
2022-10-14T11:27:48.825Z,22.36
2022-10-14T11:30:10.921Z,22.37
2022-10-14T11:32:31.038Z,22.42
2022-10-14T11:35:09.728Z,22.44
2022-10-14T11:37:23.651Z,22.46
2022-10-14T11:39:38.001Z,22.48
2022-10-14T11:41:56.897Z,22.49
2022-10-14T11:44:07.155Z,22.51
2022-10-14T11:46:12.908Z,22.53
2022-10-14T11:48:26.023Z,22.54
2022-10-14T11:50:36.890Z,22.54
2022-10-14T11:52:45.910Z,22.54
2022-10-14T11:54:53.750Z,22.55
2022-10-14T11:57:11.742Z,22.55
2022-10-14T11:59:37.829Z,22.56
2022-10-14T12:02:04.119Z,22.56
2022-10-14T12:04:12.684Z,22.56
2022-10-14T12:06:20.301Z,22.55
2022-10-14T12:08:33.113Z,22.55
2022-10-14T12:10:52.403Z,22.55
2022-10-14T12:12:55.752Z,22.56
2022-10-14T12:15:05.810Z,22.56
2022-10-14T12:17:21.797Z,22.55
2022-10-14T12:19:28.849Z,22.56
2022-10-14T12:21:49.821Z,22.55
2022-10-14T12:24:03.963Z,22.55
2022-10-14T12:26:20.633Z,22.54
2022-10-14T12:28:22.953Z,22.55
2022-10-14T12:30:30.723Z,22.55
2022-10-14T12:32:35.273Z,22.55
2022-10-14T12:34:43.053Z,22.53
2022-10-14T12:36:46.768Z,22.55
2022-10-14T12:39:17.500Z,22.54
2022-10-14T12:41:40.252Z,22.51
2022-10-14T12:43:42.133Z,22.51
2022-10-14T12:46:00.598Z,22.49
2022-10-14T12:48:37.069Z,22.49
2022-10-14T12:50:41.166Z,22.45
2022-10-14T12:52:48.184Z,22.45
2022-10-14T12:57:05.693Z,22.43
2022-10-14T12:59:25.560Z,22.41
2022-10-14T13:01:31.039Z,22.41
2022-10-14T13:03:43.583Z,22.39
2022-10-14T13:05:46.399Z,22.37
2022-10-14T13:08:20.143Z,22.35
2022-10-14T13:10:36.213Z,22.33
2022-10-14T13:12:40.968Z,22.32
2022-10-14T13:15:03.888Z,22.31
2022-10-14T13:17:42.536Z,22.29
2022-10-14T13:19:45.594Z,22.27
2022-10-14T13:21:46.998Z,22.24
2022-10-14T13:23:55.316Z,22.24
2022-10-14T13:26:28.054Z,22.21
2022-10-14T13:28:38.494Z,22.19
2022-10-14T13:31:15.330Z,22.16
2022-10-14T13:33:32.674Z,22.14
2022-10-14T13:35:48.616Z,22.10
2022-10-14T13:38:07.719Z,22.11
2022-10-14T13:40:34.935Z,22.08
2022-10-14T13:42:39.800Z,22.07
2022-10-14T13:44:41.590Z,22.06
2022-10-14T13:46:52.459Z,22.07
2022-10-14T13:49:00.383Z,22.04
2022-10-14T13:51:31.998Z,22.02
2022-10-14T13:53:49.900Z,22.00
2022-10-14T13:55:58.845Z,22.00
2022-10-14T13:58:20.115Z,21.94
2022-10-14T14:00:40.615Z,21.92
2022-10-14T14:02:51.513Z,21.90
2022-10-14T14:05:07.385Z,21.89
2022-10-14T14:08:08.391Z,21.88
2022-10-14T14:09:51.449Z,21.84
2022-10-14T14:11:55.865Z,21.84
2022-10-14T14:14:18.881Z,21.80
2022-10-14T14:16:24.886Z,21.77
2022-10-14T14:18:56.206Z,21.78
2022-10-14T14:21:03.537Z,21.74
2022-10-14T14:23:05.269Z,21.74
2022-10-14T14:25:33.458Z,21.73
2022-10-14T14:27:34.707Z,21.71
2022-10-14T14:29:38.309Z,21.70
2022-10-14T14:34:02.084Z,21.67
2022-10-14T14:36:05.968Z,21.65
2022-10-14T14:38:27.716Z,21.64
2022-10-14T14:40:38.509Z,21.63
2022-10-14T14:44:44.990Z,21.61
2022-10-14T14:46:47.823Z,21.60
2022-10-14T14:48:54.732Z,21.59
2022-10-14T14:50:57.674Z,21.57
2022-10-14T14:53:07.146Z,21.55
2022-10-14T14:55:34.613Z,21.49
2022-10-14T14:57:36.408Z,21.48
2022-10-14T14:59:42.602Z,21.45
2022-10-14T15:01:44.322Z,21.46
2022-10-14T15:04:12.232Z,21.44
2022-10-14T15:06:17.691Z,21.43
2022-10-14T15:08:24.183Z,21.41
2022-10-14T15:10:31.604Z,21.42
2022-10-14T15:12:51.451Z,21.40
2022-10-14T15:14:55.895Z,21.39
2022-10-14T15:16:57.683Z,21.38
2022-10-14T15:19:34.217Z,21.35
2022-10-14T15:21:39.179Z,21.33
2022-10-14T15:23:49.911Z,21.33
2022-10-14T15:26:00.976Z,21.30
2022-10-14T15:28:04.197Z,21.28
2022-10-14T15:30:19.471Z,21.24
2022-10-14T15:32:21.757Z,21.23
2022-10-14T15:34:23.532Z,21.21
2022-10-14T15:36:27.238Z,21.18
2022-10-14T15:40:36.898Z,21.13
2022-10-14T15:42:38.494Z,21.11
2022-10-14T15:44:39.993Z,21.10
2022-10-14T15:47:04.777Z,21.09
2022-10-14T15:49:22.037Z,21.04
2022-10-14T15:51:24.316Z,21.03
2022-10-14T15:53:26.172Z,21.01
2022-10-14T15:55:35.902Z,20.99
2022-10-14T15:57:40.011Z,20.99
2022-10-14T15:59:41.624Z,20.97
2022-10-14T16:01:45.467Z,20.94
2022-10-14T16:03:49.284Z,20.92
2022-10-14T16:05:51.244Z,20.92
2022-10-14T16:07:52.987Z,20.90
2022-10-14T16:09:54.760Z,20.89
2022-10-14T16:11:59.683Z,20.86
2022-10-14T16:14:01.637Z,20.85
2022-10-14T16:16:08.475Z,20.83
2022-10-14T16:18:09.980Z,20.82
2022-10-14T16:20:13.011Z,20.80
2022-10-14T16:22:14.888Z,20.79
2022-10-14T16:24:20.283Z,20.77
2022-10-14T16:26:25.661Z,20.77
2022-10-14T16:28:27.251Z,20.74
2022-10-14T16:30:29.038Z,20.72
2022-10-14T16:32:30.492Z,20.70
2022-10-14T16:34:32.323Z,20.68
2022-10-14T16:36:34.035Z,20.67
2022-10-14T16:38:37.597Z,20.64
2022-10-14T16:40:39.263Z,20.62
2022-10-14T16:42:41.388Z,20.60
2022-10-14T16:44:42.962Z,20.57
2022-10-14T16:47:06.368Z,20.56
2022-10-14T16:49:08.660Z,20.51
2022-10-14T16:51:13.144Z,20.48
2022-10-14T16:53:33.442Z,20.47
2022-10-14T16:55:35.166Z,20.44
2022-10-14T16:57:36.765Z,20.42
2022-10-14T16:59:40.294Z,20.40
2022-10-14T17:01:42.199Z,20.37
2022-10-14T17:03:46.747Z,20.36
2022-10-14T17:05:49.521Z,20.35
2022-10-14T17:07:52.651Z,20.32
2022-10-14T17:09:54.178Z,20.30
2022-10-14T17:11:55.981Z,20.30
2022-10-14T17:13:59.512Z,20.27
2022-10-14T17:16:05.062Z,20.24
2022-10-14T17:18:08.935Z,20.23
2022-10-14T17:20:13.589Z,20.21
2022-10-14T17:22:17.875Z,20.20
2022-10-14T17:24:19.557Z,20.19
2022-10-14T17:26:21.141Z,20.18
2022-10-14T17:28:22.707Z,20.17
2022-10-14T17:30:24.742Z,20.15
2022-10-14T17:32:28.134Z,20.13
2022-10-14T17:34:29.766Z,20.11
2022-10-14T17:36:37.389Z,20.10
2022-10-14T17:38:39.222Z,20.10
2022-10-14T17:40:40.878Z,20.10
2022-10-14T17:42:42.589Z,20.07
2022-10-14T17:44:44.350Z,20.06
2022-10-14T17:46:45.934Z,20.06
2022-10-14T17:48:56.081Z,20.03
2022-10-14T17:50:58.093Z,20.04
2022-10-14T17:53:00.432Z,20.04
2022-10-14T17:55:02.274Z,20.02
2022-10-14T17:57:03.936Z,20.02
2022-10-14T17:59:08.680Z,20.00
2022-10-14T18:01:12.714Z,19.99
2022-10-14T18:03:14.465Z,19.97
2022-10-14T18:05:16.531Z,19.95
2022-10-14T18:07:22.156Z,19.93
2022-10-14T18:09:26.600Z,19.90
2022-10-14T18:11:56.129Z,19.89
2022-10-14T18:14:06.049Z,19.87
2022-10-14T18:16:11.998Z,19.85
2022-10-14T18:18:13.656Z,19.85
2022-10-14T18:20:15.437Z,19.83
2022-10-14T18:22:17.256Z,19.82
2022-10-14T18:24:19.037Z,19.81
2022-10-14T18:26:21.894Z,19.79
2022-10-14T18:28:23.688Z,19.79
2022-10-14T18:30:25.842Z,19.78
2022-10-14T18:32:27.506Z,19.77
2022-10-14T18:34:29.043Z,19.77
2022-10-14T18:36:33.110Z,19.76
2022-10-14T18:38:35.517Z,19.75
2022-10-14T18:40:37.167Z,19.76
2022-10-14T18:42:38.788Z,19.74
2022-10-14T18:44:40.362Z,19.74
2022-10-14T18:46:42.304Z,19.72
2022-10-14T18:48:56.033Z,19.71
2022-10-14T18:51:00.199Z,19.70
2022-10-14T18:53:01.806Z,19.69
2022-10-14T18:55:03.854Z,19.67
2022-10-14T18:57:06.004Z,19.67
2022-10-14T18:59:10.617Z,19.64
2022-10-14T19:01:14.585Z,19.63
2022-10-14T19:03:16.574Z,19.65
2022-10-14T19:05:18.582Z,19.64
2022-10-14T19:07:20.069Z,19.62
2022-10-14T19:09:24.692Z,19.60
2022-10-14T19:11:26.666Z,19.59
2022-10-14T19:13:28.680Z,19.58
2022-10-14T19:15:44.542Z,19.57
2022-10-14T19:17:52.201Z,19.55
2022-10-14T19:19:56.135Z,19.53
2022-10-14T19:21:59.651Z,19.53
2022-10-14T19:24:02.849Z,19.50
2022-10-14T19:26:06.368Z,19.50
2022-10-14T19:28:09.651Z,19.49
2022-10-14T19:30:11.682Z,19.47
2022-10-14T19:32:13.411Z,19.47
2022-10-14T19:34:16.629Z,19.45
2022-10-14T19:36:20.500Z,19.44
2022-10-14T19:38:22.125Z,19.41
2022-10-14T19:40:23.950Z,19.41
2022-10-14T19:42:25.493Z,19.40
2022-10-14T19:44:27.144Z,19.38
2022-10-14T19:46:29.751Z,19.36
2022-10-14T19:48:31.644Z,19.35
2022-10-14T19:50:33.699Z,19.36
2022-10-14T19:52:38.158Z,19.33
2022-10-14T19:54:39.810Z,19.32
2022-10-14T19:56:41.585Z,19.32
2022-10-14T19:58:44.842Z,19.32
2022-10-14T20:00:46.982Z,19.32
2022-10-14T20:02:49.491Z,19.30
2022-10-14T20:04:51.104Z,19.29
2022-10-14T20:06:52.882Z,19.27
2022-10-14T20:08:54.617Z,19.26
2022-10-14T20:10:56.386Z,19.26
2022-10-14T20:12:57.995Z,19.24
2022-10-14T20:14:59.540Z,19.23
2022-10-14T20:17:02.042Z,19.23
2022-10-14T20:19:04.206Z,19.22
2022-10-14T20:21:07.646Z,19.20
2022-10-14T20:23:09.249Z,19.20
2022-10-14T20:25:13.596Z,19.20
2022-10-14T20:27:15.753Z,19.18
2022-10-14T20:29:17.645Z,19.17
2022-10-14T20:31:21.104Z,19.18
2022-10-14T20:33:23.617Z,19.18
2022-10-14T20:35:25.519Z,19.16
2022-10-14T20:37:30.674Z,19.13
2022-10-14T20:39:32.468Z,19.13
2022-10-14T20:41:34.291Z,19.12
2022-10-14T20:43:35.896Z,19.12
2022-10-14T20:45:37.528Z,19.10
2022-10-14T20:47:39.220Z,19.08
2022-10-14T20:49:40.782Z,19.09
2022-10-14T20:51:42.839Z,19.09
2022-10-14T20:53:44.336Z,19.08
2022-10-14T20:55:46.117Z,19.07
2022-10-14T20:57:48.128Z,19.06
2022-10-14T20:59:49.651Z,19.06
2022-10-14T21:01:51.368Z,19.02
2022-10-14T21:03:53.519Z,19.02
2022-10-14T21:05:55.067Z,19.03
2022-10-14T21:07:56.791Z,19.02
2022-10-14T21:09:58.919Z,19.01
2022-10-14T21:12:00.587Z,19.01
2022-10-14T21:14:02.215Z,19.00
2022-10-14T21:16:20.761Z,18.99
2022-10-14T21:18:23.092Z,18.98
2022-10-14T21:20:24.736Z,18.98
2022-10-14T21:22:26.503Z,18.97
2022-10-14T21:24:28.389Z,18.98
2022-10-14T21:26:31.571Z,18.98
2022-10-14T21:28:34.472Z,18.96
2022-10-14T21:30:40.429Z,18.95
2022-10-14T21:32:42.082Z,18.96
2022-10-14T21:34:43.563Z,18.93
2022-10-14T21:36:45.334Z,18.92
2022-10-14T21:38:46.824Z,18.90
2022-10-14T21:40:48.631Z,18.89
2022-10-14T21:42:50.537Z,18.90
2022-10-14T21:44:52.076Z,18.89
2022-10-14T21:46:53.717Z,18.90
2022-10-14T21:48:57.185Z,18.88
2022-10-14T21:51:20.997Z,18.85
2022-10-14T21:53:22.845Z,18.86
2022-10-14T21:55:24.520Z,18.87
2022-10-14T21:57:26.423Z,18.85
2022-10-14T21:59:28.063Z,18.85
2022-10-14T22:01:30.655Z,18.85
2022-10-14T22:03:33.100Z,18.84
2022-10-14T22:05:35.476Z,18.85
2022-10-14T22:07:37.064Z,18.84
2022-10-14T22:09:38.633Z,18.84
2022-10-14T22:11:41.613Z,18.84
2022-10-14T22:13:43.326Z,18.83
2022-10-14T22:15:44.825Z,18.81
2022-10-14T22:17:46.318Z,18.83
2022-10-14T22:19:47.906Z,18.82
2022-10-14T22:21:50.204Z,18.82
2022-10-14T22:23:52.277Z,18.84
2022-10-14T22:25:54.322Z,18.83
2022-10-14T22:27:56.113Z,18.83
2022-10-14T22:29:57.555Z,18.84
2022-10-14T22:31:59.086Z,18.85
2022-10-14T22:34:05.822Z,18.82
2022-10-14T22:36:08.380Z,18.82
2022-10-14T22:38:10.310Z,18.81
2022-10-14T22:40:12.142Z,18.82
2022-10-14T22:42:13.809Z,18.81
2022-10-14T22:44:15.561Z,18.79
2022-10-14T22:46:22.498Z,18.79
2022-10-14T22:48:24.089Z,18.78
2022-10-14T22:50:25.593Z,18.78
2022-10-14T22:52:27.267Z,18.77
2022-10-14T22:54:28.936Z,18.76
2022-10-14T22:56:31.502Z,18.76
2022-10-14T22:58:33.193Z,18.76
2022-10-14T23:00:34.816Z,18.77
2022-10-14T23:02:36.691Z,18.76
2022-10-14T23:04:38.257Z,18.75
2022-10-14T23:06:40.494Z,18.76
2022-10-14T23:08:42.684Z,18.75
2022-10-14T23:10:44.285Z,18.75
2022-10-14T23:12:45.827Z,18.73
2022-10-14T23:14:47.361Z,18.72
2022-10-14T23:16:49.096Z,18.71
2022-10-14T23:18:51.193Z,18.74
2022-10-14T23:20:52.850Z,18.71
2022-10-14T23:22:54.477Z,18.71
2022-10-14T23:24:56.479Z,18.70
2022-10-14T23:26:58.274Z,18.71
2022-10-14T23:29:01.561Z,18.73
2022-10-14T23:31:18.158Z,18.71
2022-10-14T23:33:19.876Z,18.70
2022-10-14T23:35:22.321Z,18.71
2022-10-14T23:37:24.626Z,18.69
2022-10-14T23:39:26.753Z,18.71
2022-10-14T23:41:28.608Z,18.71
2022-10-14T23:43:30.685Z,18.71
2022-10-14T23:45:32.392Z,18.70
2022-10-14T23:47:34.463Z,18.70
2022-10-14T23:49:36.017Z,18.70
2022-10-14T23:51:37.695Z,18.70
2022-10-14T23:53:39.366Z,18.68
2022-10-14T23:55:41.839Z,18.67
2022-10-14T23:57:44.843Z,18.66
2022-10-14T23:59:46.402Z,18.66
